To NAV CANADA Home Page Login to a new session Search on AWWS site Feedback and Comments Disclaimer Vers la page française équivalente Tips FAQ What's new on the site To the Forecasts and Observations / NOTAM section To "File a Flight Plan" website Publications and other links Update of the User's profile FIC Telephone Numbers My Weather Data Folder Route Weather Data Regional Weather Data Local Weather Data To the Forecasts and Observations / NOTAM section
Request Generated 09/01/2016 at 05:33:53 UTC . Weather information available at that time is displayed.

METAR/TAF

KELOWNA/BC    (show WxCam)

METAR CYLW 010500Z AUTO 18005KT 9SM BKN075 BKN120 BKN240 19/08 A2985
RMK SLP104 DENSITY ALT 2300FT=
METAR CYLW 010400Z AUTO 21003KT 180V300 9SM FEW240 21/08 A2982 RMK
SLP095 DENSITY ALT 2500FT=
METAR CYLW 010300Z AUTO 32010KT 310V010 9SM CLR 23/08 A2977 RMK
SLP079 DENSITY ALT 2800FT=

TAF CYLW 010038Z 0101/0113 22012G22KT P6SM SCT100 SCT240
FM010200 22010G20KT P6SM SCT100 BKN240 TEMPO 0102/0108 P6SM -SHRA
SCT080 BKN100
BECMG 0104/0106 16010KT
FM010800 17006KT P6SM SCT040 BKN080 TEMPO 0108/0113 P6SM -SHRA
FEW020 BKN040 BKN080
RMK FCST BASED ON AUTO OBS. NXT FCST BY 010700Z=
Your time UTC time
Weather data provided by Environment Canada and NAV CANADA